sensor_id;sensor_type;location;lat;lon;timestamp;P1;durP1;ratioP1;P2;durP2;ratioP2
53801;SDS011;39709;53.334;6.534;2022-12-16T00:00:32;12.43;;;4.60;;
53801;SDS011;39709;53.334;6.534;2022-12-16T00:02:58;9.70;;;3.30;;
53801;SDS011;39709;53.334;6.534;2022-12-16T00:05:25;11.65;;;3.90;;
53801;SDS011;39709;53.334;6.534;2022-12-16T00:07:52;10.98;;;3.70;;
53801;SDS011;39709;53.334;6.534;2022-12-16T00:10:19;11.80;;;3.28;;
53801;SDS011;39709;53.334;6.534;2022-12-16T00:12:45;9.82;;;4.05;;
53801;SDS011;39709;53.334;6.534;2022-12-16T00:15:11;11.83;;;3.47;;
53801;SDS011;39709;53.334;6.534;2022-12-16T00:17:36;7.88;;;2.70;;
53801;SDS011;39709;53.334;6.534;2022-12-16T00:20:03;8.67;;;3.03;;
53801;SDS011;39709;53.334;6.534;2022-12-16T00:22:30;9.52;;;3.38;;
53801;SDS011;39709;53.334;6.534;2022-12-16T00:24:56;9.63;;;2.92;;
53801;SDS011;39709;53.334;6.534;2022-12-16T00:27:21;9.30;;;2.63;;
53801;SDS011;39709;53.334;6.534;2022-12-16T00:29:47;8.80;;;2.92;;
53801;SDS011;39709;53.334;6.534;2022-12-16T00:32:13;15.57;;;3.40;;
53801;SDS011;39709;53.334;6.534;2022-12-16T00:34:39;10.52;;;3.05;;
53801;SDS011;39709;53.334;6.534;2022-12-16T00:37:04;11.90;;;3.00;;
53801;SDS011;39709;53.334;6.534;2022-12-16T00:39:30;11.00;;;3.13;;
53801;SDS011;39709;53.334;6.534;2022-12-16T00:41:55;9.07;;;2.70;;
53801;SDS011;39709;53.334;6.534;2022-12-16T00:44:21;11.20;;;3.53;;
53801;SDS011;39709;53.334;6.534;2022-12-16T00:46:47;10.30;;;3.30;;
53801;SDS011;39709;53.334;6.534;2022-12-16T00:49:12;11.87;;;3.57;;
53801;SDS011;39709;53.334;6.534;2022-12-16T00:51:38;7.45;;;2.90;;
53801;SDS011;39709;53.334;6.534;2022-12-16T00:54:04;8.57;;;3.57;;
53801;SDS011;39709;53.334;6.534;2022-12-16T00:56:29;9.68;;;2.85;;
53801;SDS011;39709;53.334;6.534;2022-12-16T00:58:55;10.03;;;3.30;;
53801;SDS011;39709;53.334;6.534;2022-12-16T01:01:21;8.63;;;3.23;;
53801;SDS011;39709;53.334;6.534;2022-12-16T01:03:46;8.80;;;2.92;;
53801;SDS011;39709;53.334;6.534;2022-12-16T01:06:13;8.40;;;3.30;;
53801;SDS011;39709;53.334;6.534;2022-12-16T01:08:40;7.07;;;2.97;;
53801;SDS011;39709;53.334;6.534;2022-12-16T01:11:13;7.75;;;2.85;;
53801;SDS011;39709;53.334;6.534;2022-12-16T01:13:40;7.15;;;3.05;;
53801;SDS011;39709;53.334;6.534;2022-12-16T01:16:06;8.70;;;3.40;;
53801;SDS011;39709;53.334;6.534;2022-12-16T01:18:32;8.23;;;3.00;;
53801;SDS011;39709;53.334;6.534;2022-12-16T01:21:02;10.30;;;2.80;;
53801;SDS011;39709;53.334;6.534;2022-12-16T01:23:29;8.53;;;3.20;;
53801;SDS011;39709;53.334;6.534;2022-12-16T01:25:54;6.97;;;2.95;;
53801;SDS011;39709;53.334;6.534;2022-12-16T01:28:24;8.18;;;2.78;;
53801;SDS011;39709;53.334;6.534;2022-12-16T01:30:53;9.00;;;3.20;;
53801;SDS011;39709;53.334;6.534;2022-12-16T01:33:26;8.02;;;3.17;;
53801;SDS011;39709;53.334;6.534;2022-12-16T01:35:59;7.95;;;3.30;;
53801;SDS011;39709;53.334;6.534;2022-12-16T01:38:29;7.93;;;3.15;;
53801;SDS011;39709;53.334;6.534;2022-12-16T01:40:56;7.45;;;3.00;;
53801;SDS011;39709;53.334;6.534;2022-12-16T01:43:26;8.60;;;3.00;;
53801;SDS011;39709;53.334;6.534;2022-12-16T01:46:07;10.25;;;3.75;;
53801;SDS011;39709;53.334;6.534;2022-12-16T01:48:39;8.35;;;3.10;;
53801;SDS011;39709;53.334;6.534;2022-12-16T01:51:19;11.20;;;3.50;;
53801;SDS011;39709;53.334;6.534;2022-12-16T01:53:51;9.93;;;3.38;;
53801;SDS011;39709;53.334;6.534;2022-12-16T01:56:21;13.23;;;3.67;;
53801;SDS011;39709;53.334;6.534;2022-12-16T01:58:49;10.68;;;3.88;;
53801;SDS011;39709;53.334;6.534;2022-12-16T02:01:16;12.48;;;3.90;;
53801;SDS011;39709;53.334;6.534;2022-12-16T02:03:42;12.60;;;4.53;;
53801;SDS011;39709;53.334;6.534;2022-12-16T02:06:08;11.50;;;4.00;;
53801;SDS011;39709;53.334;6.534;2022-12-16T02:08:34;9.48;;;3.30;;
53801;SDS011;39709;53.334;6.534;2022-12-16T02:11:05;10.88;;;3.10;;
53801;SDS011;39709;53.334;6.534;2022-12-16T02:16:39;10.75;;;3.08;;
53801;SDS011;39709;53.334;6.534;2022-12-16T02:25:05;10.93;;;3.00;;
53801;SDS011;39709;53.334;6.534;2022-12-16T02:30:55;7.65;;;3.17;;
53801;SDS011;39709;53.334;6.534;2022-12-16T02:33:38;10.82;;;3.50;;
53801;SDS011;39709;53.334;6.534;2022-12-16T02:39:00;9.88;;;3.65;;
53801;SDS011;39709;53.334;6.534;2022-12-16T02:44:10;15.07;;;5.85;;
53801;SDS011;39709;53.334;6.534;2022-12-16T02:46:40;11.43;;;5.25;;
53801;SDS011;39709;53.334;6.534;2022-12-16T02:49:34;14.73;;;6.88;;
53801;SDS011;39709;53.334;6.534;2022-12-16T02:51:53;13.57;;;7.80;;
53801;SDS011;39709;53.334;6.534;2022-12-16T02:54:20;14.87;;;7.57;;
53801;SDS011;39709;53.334;6.534;2022-12-16T02:59:47;16.20;;;7.05;;
53801;SDS011;39709;53.334;6.534;2022-12-16T03:02:29;13.75;;;8.15;;
53801;SDS011;39709;53.334;6.534;2022-12-16T03:05:34;17.85;;;9.15;;
53801;SDS011;39709;53.334;6.534;2022-12-16T03:08:08;21.57;;;12.57;;
53801;SDS011;39709;53.334;6.534;2022-12-16T03:10:40;21.55;;;12.80;;
53801;SDS011;39709;53.334;6.534;2022-12-16T03:13:13;24.23;;;13.18;;
53801;SDS011;39709;53.334;6.534;2022-12-16T03:15:41;24.42;;;14.68;;
53801;SDS011;39709;53.334;6.534;2022-12-16T03:18:08;32.88;;;20.27;;
53801;SDS011;39709;53.334;6.534;2022-12-16T03:20:49;30.60;;;21.17;;
53801;SDS011;39709;53.334;6.534;2022-12-16T03:23:21;29.90;;;19.85;;
53801;SDS011;39709;53.334;6.534;2022-12-16T03:25:52;31.73;;;20.30;;
53801;SDS011;39709;53.334;6.534;2022-12-16T03:30:53;31.60;;;15.90;;
53801;SDS011;39709;53.334;6.534;2022-12-16T03:33:27;38.00;;;18.60;;
53801;SDS011;39709;53.334;6.534;2022-12-16T03:36:03;44.72;;;20.08;;
53801;SDS011;39709;53.334;6.534;2022-12-16T03:38:36;55.05;;;25.48;;
53801;SDS011;39709;53.334;6.534;2022-12-16T03:41:04;52.03;;;23.63;;
53801;SDS011;39709;53.334;6.534;2022-12-16T03:43:31;58.45;;;26.48;;
53801;SDS011;39709;53.334;6.534;2022-12-16T03:45:59;46.27;;;19.23;;
53801;SDS011;39709;53.334;6.534;2022-12-16T03:48:29;50.30;;;21.85;;
53801;SDS011;39709;53.334;6.534;2022-12-16T03:50:55;54.90;;;23.02;;
53801;SDS011;39709;53.334;6.534;2022-12-16T03:53:21;70.50;;;29.23;;
53801;SDS011;39709;53.334;6.534;2022-12-16T03:55:50;53.42;;;22.10;;
53801;SDS011;39709;53.334;6.534;2022-12-16T03:58:16;66.97;;;27.88;;
53801;SDS011;39709;53.334;6.534;2022-12-16T04:00:41;58.33;;;23.30;;
53801;SDS011;39709;53.334;6.534;2022-12-16T04:03:07;52.57;;;19.70;;
53801;SDS011;39709;53.334;6.534;2022-12-16T04:05:33;56.22;;;20.95;;
53801;SDS011;39709;53.334;6.534;2022-12-16T04:07:59;64.03;;;24.48;;
53801;SDS011;39709;53.334;6.534;2022-12-16T04:10:25;58.20;;;21.17;;
53801;SDS011;39709;53.334;6.534;2022-12-16T04:13:09;53.00;;;21.20;;
53801;SDS011;39709;53.334;6.534;2022-12-16T04:15:53;49.55;;;20.20;;
53801;SDS011;39709;53.334;6.534;2022-12-16T04:18:38;70.97;;;24.67;;
53801;SDS011;39709;53.334;6.534;2022-12-16T04:21:23;75.97;;;29.90;;
53801;SDS011;39709;53.334;6.534;2022-12-16T04:24:09;71.67;;;29.07;;
53801;SDS011;39709;53.334;6.534;2022-12-16T04:26:43;47.63;;;17.73;;
53801;SDS011;39709;53.334;6.534;2022-12-16T04:29:28;74.07;;;29.90;;
53801;SDS011;39709;53.334;6.534;2022-12-16T04:31:54;73.03;;;24.63;;
53801;SDS011;39709;53.334;6.534;2022-12-16T04:34:20;69.00;;;26.03;;
53801;SDS011;39709;53.334;6.534;2022-12-16T04:36:56;67.07;;;27.52;;
53801;SDS011;39709;53.334;6.534;2022-12-16T04:39:41;57.35;;;22.52;;
53801;SDS011;39709;53.334;6.534;2022-12-16T04:42:26;64.43;;;25.00;;
53801;SDS011;39709;53.334;6.534;2022-12-16T04:45:10;82.55;;;34.60;;
53801;SDS011;39709;53.334;6.534;2022-12-16T04:47:54;65.57;;;25.77;;
53801;SDS011;39709;53.334;6.534;2022-12-16T04:50:39;56.17;;;21.83;;
53801;SDS011;39709;53.334;6.534;2022-12-16T04:53:24;59.00;;;24.27;;
53801;SDS011;39709;53.334;6.534;2022-12-16T04:56:08;58.88;;;24.77;;
53801;SDS011;39709;53.334;6.534;2022-12-16T04:58:53;75.15;;;31.98;;
53801;SDS011;39709;53.334;6.534;2022-12-16T05:01:37;70.50;;;27.13;;
53801;SDS011;39709;53.334;6.534;2022-12-16T05:04:21;63.72;;;25.00;;
53801;SDS011;39709;53.334;6.534;2022-12-16T05:07:06;66.30;;;26.45;;
53801;SDS011;39709;53.334;6.534;2022-12-16T05:09:50;58.53;;;25.05;;
53801;SDS011;39709;53.334;6.534;2022-12-16T05:12:34;51.78;;;17.15;;
53801;SDS011;39709;53.334;6.534;2022-12-16T05:15:18;55.13;;;22.67;;
53801;SDS011;39709;53.334;6.534;2022-12-16T05:18:09;61.90;;;24.63;;
53801;SDS011;39709;53.334;6.534;2022-12-16T05:20:58;69.35;;;25.55;;
53801;SDS011;39709;53.334;6.534;2022-12-16T05:23:43;72.38;;;29.38;;
53801;SDS011;39709;53.334;6.534;2022-12-16T05:26:27;74.57;;;28.27;;
53801;SDS011;39709;53.334;6.534;2022-12-16T05:29:11;65.60;;;25.47;;
53801;SDS011;39709;53.334;6.534;2022-12-16T05:31:55;64.40;;;26.23;;
53801;SDS011;39709;53.334;6.534;2022-12-16T05:34:39;61.15;;;24.83;;
53801;SDS011;39709;53.334;6.534;2022-12-16T05:37:24;62.65;;;26.40;;
53801;SDS011;39709;53.334;6.534;2022-12-16T05:40:08;58.05;;;25.20;;
53801;SDS011;39709;53.334;6.534;2022-12-16T05:42:54;64.37;;;27.70;;
53801;SDS011;39709;53.334;6.534;2022-12-16T05:45:39;59.38;;;25.58;;
53801;SDS011;39709;53.334;6.534;2022-12-16T05:48:23;64.15;;;25.30;;
53801;SDS011;39709;53.334;6.534;2022-12-16T05:51:08;60.30;;;24.75;;
53801;SDS011;39709;53.334;6.534;2022-12-16T05:53:53;59.03;;;24.70;;
53801;SDS011;39709;53.334;6.534;2022-12-16T05:56:37;65.55;;;26.08;;
53801;SDS011;39709;53.334;6.534;2022-12-16T05:59:21;60.05;;;27.52;;
53801;SDS011;39709;53.334;6.534;2022-12-16T06:02:05;60.63;;;27.00;;
53801;SDS011;39709;53.334;6.534;2022-12-16T06:04:50;59.00;;;26.73;;
53801;SDS011;39709;53.334;6.534;2022-12-16T06:07:34;59.92;;;27.50;;
53801;SDS011;39709;53.334;6.534;2022-12-16T06:10:18;60.17;;;27.00;;
53801;SDS011;39709;53.334;6.534;2022-12-16T06:13:03;65.65;;;30.02;;
53801;SDS011;39709;53.334;6.534;2022-12-16T06:15:47;52.53;;;21.95;;
53801;SDS011;39709;53.334;6.534;2022-12-16T06:18:31;62.70;;;27.08;;
53801;SDS011;39709;53.334;6.534;2022-12-16T06:21:15;65.63;;;26.90;;
53801;SDS011;39709;53.334;6.534;2022-12-16T06:23:59;53.37;;;25.07;;
53801;SDS011;39709;53.334;6.534;2022-12-16T06:26:43;44.38;;;20.05;;
53801;SDS011;39709;53.334;6.534;2022-12-16T06:29:28;54.45;;;23.10;;
53801;SDS011;39709;53.334;6.534;2022-12-16T06:32:12;62.42;;;25.90;;
53801;SDS011;39709;53.334;6.534;2022-12-16T06:34:56;58.55;;;27.10;;
53801;SDS011;39709;53.334;6.534;2022-12-16T06:37:40;68.43;;;29.67;;
53801;SDS011;39709;53.334;6.534;2022-12-16T06:40:25;61.63;;;26.98;;
53801;SDS011;39709;53.334;6.534;2022-12-16T06:43:09;59.83;;;25.75;;
53801;SDS011;39709;53.334;6.534;2022-12-16T06:45:53;64.40;;;28.63;;
53801;SDS011;39709;53.334;6.534;2022-12-16T06:48:37;64.80;;;25.92;;
53801;SDS011;39709;53.334;6.534;2022-12-16T06:51:22;72.17;;;30.73;;
53801;SDS011;39709;53.334;6.534;2022-12-16T06:54:06;66.97;;;30.02;;
53801;SDS011;39709;53.334;6.534;2022-12-16T06:56:50;68.63;;;30.15;;
53801;SDS011;39709;53.334;6.534;2022-12-16T06:59:34;65.95;;;28.55;;
53801;SDS011;39709;53.334;6.534;2022-12-16T07:02:18;71.93;;;30.83;;
53801;SDS011;39709;53.334;6.534;2022-12-16T07:05:03;73.43;;;28.77;;
53801;SDS011;39709;53.334;6.534;2022-12-16T07:07:47;69.20;;;29.20;;
53801;SDS011;39709;53.334;6.534;2022-12-16T07:10:32;66.90;;;28.85;;
53801;SDS011;39709;53.334;6.534;2022-12-16T07:13:17;70.43;;;29.45;;
53801;SDS011;39709;53.334;6.534;2022-12-16T07:16:01;61.95;;;27.55;;
53801;SDS011;39709;53.334;6.534;2022-12-16T07:18:45;62.67;;;27.30;;
53801;SDS011;39709;53.334;6.534;2022-12-16T07:21:29;67.28;;;29.75;;
53801;SDS011;39709;53.334;6.534;2022-12-16T07:24:13;77.95;;;31.83;;
53801;SDS011;39709;53.334;6.534;2022-12-16T07:26:58;67.22;;;30.95;;
53801;SDS011;39709;53.334;6.534;2022-12-16T07:29:42;73.13;;;31.60;;
53801;SDS011;39709;53.334;6.534;2022-12-16T07:32:26;69.90;;;29.80;;
53801;SDS011;39709;53.334;6.534;2022-12-16T07:35:10;67.00;;;29.98;;
53801;SDS011;39709;53.334;6.534;2022-12-16T07:37:54;69.85;;;29.23;;
53801;SDS011;39709;53.334;6.534;2022-12-16T07:40:38;73.32;;;30.95;;
53801;SDS011;39709;53.334;6.534;2022-12-16T07:43:23;83.93;;;32.50;;
53801;SDS011;39709;53.334;6.534;2022-12-16T07:46:07;71.13;;;29.33;;
53801;SDS011;39709;53.334;6.534;2022-12-16T07:48:51;79.03;;;33.20;;
53801;SDS011;39709;53.334;6.534;2022-12-16T07:51:35;78.10;;;32.05;;
53801;SDS011;39709;53.334;6.534;2022-12-16T07:54:19;80.90;;;32.00;;
53801;SDS011;39709;53.334;6.534;2022-12-16T07:57:03;74.95;;;32.83;;
53801;SDS011;39709;53.334;6.534;2022-12-16T07:59:55;74.47;;;33.10;;
53801;SDS011;39709;53.334;6.534;2022-12-16T08:02:40;72.50;;;31.63;;
53801;SDS011;39709;53.334;6.534;2022-12-16T08:05:24;63.97;;;29.15;;
53801;SDS011;39709;53.334;6.534;2022-12-16T08:08:08;72.70;;;30.67;;
53801;SDS011;39709;53.334;6.534;2022-12-16T08:10:52;71.78;;;32.00;;
53801;SDS011;39709;53.334;6.534;2022-12-16T08:13:36;70.30;;;29.60;;
53801;SDS011;39709;53.334;6.534;2022-12-16T08:16:21;78.93;;;31.48;;
53801;SDS011;39709;53.334;6.534;2022-12-16T08:19:05;73.43;;;33.03;;
53801;SDS011;39709;53.334;6.534;2022-12-16T08:21:49;76.18;;;33.50;;
53801;SDS011;39709;53.334;6.534;2022-12-16T08:24:33;74.80;;;32.55;;
53801;SDS011;39709;53.334;6.534;2022-12-16T08:27:18;99.17;;;34.93;;
53801;SDS011;39709;53.334;6.534;2022-12-16T08:30:02;87.88;;;34.20;;
53801;SDS011;39709;53.334;6.534;2022-12-16T08:32:47;82.38;;;34.97;;
53801;SDS011;39709;53.334;6.534;2022-12-16T08:35:31;73.55;;;32.35;;
53801;SDS011;39709;53.334;6.534;2022-12-16T08:38:15;79.70;;;32.17;;
53801;SDS011;39709;53.334;6.534;2022-12-16T08:40:59;69.63;;;30.73;;
53801;SDS011;39709;53.334;6.534;2022-12-16T08:43:43;69.25;;;30.45;;
53801;SDS011;39709;53.334;6.534;2022-12-16T08:46:28;68.22;;;31.23;;
53801;SDS011;39709;53.334;6.534;2022-12-16T08:49:12;59.55;;;28.10;;
53801;SDS011;39709;53.334;6.534;2022-12-16T08:51:56;66.57;;;30.10;;
53801;SDS011;39709;53.334;6.534;2022-12-16T08:54:41;66.20;;;30.20;;
53801;SDS011;39709;53.334;6.534;2022-12-16T08:57:25;66.43;;;30.20;;
53801;SDS011;39709;53.334;6.534;2022-12-16T09:00:09;68.00;;;31.27;;
53801;SDS011;39709;53.334;6.534;2022-12-16T09:02:54;69.32;;;30.50;;
53801;SDS011;39709;53.334;6.534;2022-12-16T09:05:40;64.18;;;27.77;;
53801;SDS011;39709;53.334;6.534;2022-12-16T09:08:25;56.33;;;27.77;;
53801;SDS011;39709;53.334;6.534;2022-12-16T09:11:10;58.55;;;28.20;;
53801;SDS011;39709;53.334;6.534;2022-12-16T09:13:54;72.57;;;29.73;;
53801;SDS011;39709;53.334;6.534;2022-12-16T09:16:38;70.88;;;29.85;;
53801;SDS011;39709;53.334;6.534;2022-12-16T09:19:23;71.05;;;31.60;;
53801;SDS011;39709;53.334;6.534;2022-12-16T09:22:07;72.10;;;29.80;;
53801;SDS011;39709;53.334;6.534;2022-12-16T09:24:51;66.40;;;30.35;;
53801;SDS011;39709;53.334;6.534;2022-12-16T09:27:35;68.25;;;29.83;;
53801;SDS011;39709;53.334;6.534;2022-12-16T09:30:20;61.00;;;27.30;;
53801;SDS011;39709;53.334;6.534;2022-12-16T09:33:04;59.50;;;26.85;;
53801;SDS011;39709;53.334;6.534;2022-12-16T09:35:48;71.07;;;29.53;;
53801;SDS011;39709;53.334;6.534;2022-12-16T09:38:32;64.97;;;28.52;;
53801;SDS011;39709;53.334;6.534;2022-12-16T09:47:19;47.85;;;21.33;;
53801;SDS011;39709;53.334;6.534;2022-12-16T09:50:24;58.53;;;27.37;;
53801;SDS011;39709;53.334;6.534;2022-12-16T09:53:13;55.08;;;25.10;;
53801;SDS011;39709;53.334;6.534;2022-12-16T09:56:01;51.38;;;21.13;;
53801;SDS011;39709;53.334;6.534;2022-12-16T09:58:52;63.30;;;27.17;;
53801;SDS011;39709;53.334;6.534;2022-12-16T10:01:41;60.38;;;26.60;;
53801;SDS011;39709;53.334;6.534;2022-12-16T10:04:26;55.67;;;24.33;;
53801;SDS011;39709;53.334;6.534;2022-12-16T10:07:20;54.10;;;23.27;;
53801;SDS011;39709;53.334;6.534;2022-12-16T10:13:30;57.50;;;25.70;;
53801;SDS011;39709;53.334;6.534;2022-12-16T10:16:28;66.63;;;27.30;;
53801;SDS011;39709;53.334;6.534;2022-12-16T10:25:34;70.13;;;29.17;;
53801;SDS011;39709;53.334;6.534;2022-12-16T10:28:43;67.55;;;28.92;;
53801;SDS011;39709;53.334;6.534;2022-12-16T10:31:29;68.82;;;28.45;;
53801;SDS011;39709;53.334;6.534;2022-12-16T10:34:19;69.63;;;28.87;;
53801;SDS011;39709;53.334;6.534;2022-12-16T10:37:11;78.10;;;30.83;;
53801;SDS011;39709;53.334;6.534;2022-12-16T10:40:01;70.18;;;29.55;;
53801;SDS011;39709;53.334;6.534;2022-12-16T10:42:47;66.68;;;29.95;;
53801;SDS011;39709;53.334;6.534;2022-12-16T10:45:37;72.53;;;30.30;;
53801;SDS011;39709;53.334;6.534;2022-12-16T10:48:27;63.60;;;28.83;;
53801;SDS011;39709;53.334;6.534;2022-12-16T10:51:14;67.78;;;29.33;;
53801;SDS011;39709;53.334;6.534;2022-12-16T10:54:00;72.25;;;30.60;;
53801;SDS011;39709;53.334;6.534;2022-12-16T10:59:52;67.50;;;29.38;;
53801;SDS011;39709;53.334;6.534;2022-12-16T11:03:23;74.00;;;29.93;;
53801;SDS011;39709;53.334;6.534;2022-12-16T11:06:07;72.82;;;30.02;;
53801;SDS011;39709;53.334;6.534;2022-12-16T11:08:54;70.00;;;29.92;;
53801;SDS011;39709;53.334;6.534;2022-12-16T11:11:38;72.05;;;30.38;;
53801;SDS011;39709;53.334;6.534;2022-12-16T11:14:26;70.00;;;31.70;;
53801;SDS011;39709;53.334;6.534;2022-12-16T11:17:16;85.97;;;34.37;;
53801;SDS011;39709;53.334;6.534;2022-12-16T11:20:11;76.72;;;31.67;;
53801;SDS011;39709;53.334;6.534;2022-12-16T11:29:01;90.05;;;33.53;;
53801;SDS011;39709;53.334;6.534;2022-12-16T11:31:49;83.23;;;34.33;;
53801;SDS011;39709;53.334;6.534;2022-12-16T11:34:38;83.32;;;32.83;;
53801;SDS011;39709;53.334;6.534;2022-12-16T11:37:24;77.90;;;32.13;;
53801;SDS011;39709;53.334;6.534;2022-12-16T11:40:15;78.72;;;31.48;;
53801;SDS011;39709;53.334;6.534;2022-12-16T11:43:04;70.88;;;30.52;;
53801;SDS011;39709;53.334;6.534;2022-12-16T11:45:50;65.60;;;29.47;;
53801;SDS011;39709;53.334;6.534;2022-12-16T11:48:41;81.88;;;32.50;;
53801;SDS011;39709;53.334;6.534;2022-12-16T11:51:29;80.57;;;33.33;;
53801;SDS011;39709;53.334;6.534;2022-12-16T11:54:18;78.18;;;32.40;;
53801;SDS011;39709;53.334;6.534;2022-12-16T11:57:04;74.45;;;31.42;;
53801;SDS011;39709;53.334;6.534;2022-12-16T12:00:00;68.00;;;29.27;;
53801;SDS011;39709;53.334;6.534;2022-12-16T12:02:52;69.15;;;28.67;;
53801;SDS011;39709;53.334;6.534;2022-12-16T12:06:12;61.78;;;27.48;;
53801;SDS011;39709;53.334;6.534;2022-12-16T12:09:07;56.42;;;21.90;;
53801;SDS011;39709;53.334;6.534;2022-12-16T12:18:14;63.40;;;27.20;;
53801;SDS011;39709;53.334;6.534;2022-12-16T12:21:12;63.85;;;29.73;;
53801;SDS011;39709;53.334;6.534;2022-12-16T12:30:09;56.07;;;24.73;;
53801;SDS011;39709;53.334;6.534;2022-12-16T12:36:23;61.85;;;27.63;;
53801;SDS011;39709;53.334;6.534;2022-12-16T12:39:22;61.80;;;28.90;;
53801;SDS011;39709;53.334;6.534;2022-12-16T12:51:08;68.93;;;28.88;;
53801;SDS011;39709;53.334;6.534;2022-12-16T12:54:50;69.60;;;30.23;;
53801;SDS011;39709;53.334;6.534;2022-12-16T12:57:26;75.28;;;31.33;;
53801;SDS011;39709;53.334;6.534;2022-12-16T13:06:11;78.07;;;32.03;;
53801;SDS011;39709;53.334;6.534;2022-12-16T13:08:57;74.32;;;31.55;;
53801;SDS011;39709;53.334;6.534;2022-12-16T13:14:53;79.77;;;33.30;;
53801;SDS011;39709;53.334;6.534;2022-12-16T13:20:44;82.07;;;31.88;;
53801;SDS011;39709;53.334;6.534;2022-12-16T13:23:35;89.05;;;32.80;;
53801;SDS011;39709;53.334;6.534;2022-12-16T13:26:21;88.53;;;34.20;;
53801;SDS011;39709;53.334;6.534;2022-12-16T13:29:27;88.43;;;33.10;;
53801;SDS011;39709;53.334;6.534;2022-12-16T13:35:00;95.60;;;35.17;;
53801;SDS011;39709;53.334;6.534;2022-12-16T13:37:55;92.55;;;35.05;;
53801;SDS011;39709;53.334;6.534;2022-12-16T13:40:53;98.57;;;36.25;;
53801;SDS011;39709;53.334;6.534;2022-12-16T13:55:26;101.13;;;37.88;;
53801;SDS011;39709;53.334;6.534;2022-12-16T13:58:19;95.07;;;35.97;;
53801;SDS011;39709;53.334;6.534;2022-12-16T14:01:15;101.00;;;38.10;;
53801;SDS011;39709;53.334;6.534;2022-12-16T14:04:15;103.47;;;37.92;;
53801;SDS011;39709;53.334;6.534;2022-12-16T14:07:08;97.65;;;37.10;;
53801;SDS011;39709;53.334;6.534;2022-12-16T14:09:53;109.47;;;38.40;;
53801;SDS011;39709;53.334;6.534;2022-12-16T14:12:42;110.95;;;39.30;;
53801;SDS011;39709;53.334;6.534;2022-12-16T14:15:38;105.85;;;40.72;;
53801;SDS011;39709;53.334;6.534;2022-12-16T14:18:30;118.15;;;41.55;;
53801;SDS011;39709;53.334;6.534;2022-12-16T14:21:31;127.18;;;46.88;;
53801;SDS011;39709;53.334;6.534;2022-12-16T14:24:24;123.50;;;43.60;;
53801;SDS011;39709;53.334;6.534;2022-12-16T14:27:19;104.93;;;39.50;;
53801;SDS011;39709;53.334;6.534;2022-12-16T14:30:15;112.55;;;39.67;;
53801;SDS011;39709;53.334;6.534;2022-12-16T14:36:22;122.50;;;40.67;;
53801;SDS011;39709;53.334;6.534;2022-12-16T14:39:09;128.15;;;41.20;;
53801;SDS011;39709;53.334;6.534;2022-12-16T14:41:55;117.37;;;41.03;;
53801;SDS011;39709;53.334;6.534;2022-12-16T14:44:39;129.65;;;41.63;;
53801;SDS011;39709;53.334;6.534;2022-12-16T14:47:26;124.88;;;40.95;;
53801;SDS011;39709;53.334;6.534;2022-12-16T14:50:18;123.43;;;41.08;;
53801;SDS011;39709;53.334;6.534;2022-12-16T14:53:09;114.35;;;39.85;;
53801;SDS011;39709;53.334;6.534;2022-12-16T15:01:59;151.23;;;56.47;;
53801;SDS011;39709;53.334;6.534;2022-12-16T15:04:56;136.80;;;46.65;;
53801;SDS011;39709;53.334;6.534;2022-12-16T15:07:40;180.20;;;61.17;;
53801;SDS011;39709;53.334;6.534;2022-12-16T15:10:25;155.83;;;54.47;;
53801;SDS011;39709;53.334;6.534;2022-12-16T15:13:12;126.10;;;45.92;;
53801;SDS011;39709;53.334;6.534;2022-12-16T15:16:00;136.00;;;47.58;;
53801;SDS011;39709;53.334;6.534;2022-12-16T15:18:46;140.82;;;48.38;;
53801;SDS011;39709;53.334;6.534;2022-12-16T15:21:36;141.40;;;48.63;;
53801;SDS011;39709;53.334;6.534;2022-12-16T15:24:22;167.17;;;56.43;;
53801;SDS011;39709;53.334;6.534;2022-12-16T15:27:12;136.10;;;45.60;;
53801;SDS011;39709;53.334;6.534;2022-12-16T15:33:34;118.13;;;43.83;;
53801;SDS011;39709;53.334;6.534;2022-12-16T15:36:30;138.00;;;49.60;;
53801;SDS011;39709;53.334;6.534;2022-12-16T15:39:20;148.03;;;45.27;;
53801;SDS011;39709;53.334;6.534;2022-12-16T15:42:23;148.75;;;51.10;;
53801;SDS011;39709;53.334;6.534;2022-12-16T15:48:10;118.28;;;41.60;;
53801;SDS011;39709;53.334;6.534;2022-12-16T15:51:00;125.50;;;44.50;;
53801;SDS011;39709;53.334;6.534;2022-12-16T15:53:44;114.07;;;41.30;;
53801;SDS011;39709;53.334;6.534;2022-12-16T15:56:39;114.53;;;41.05;;
53801;SDS011;39709;53.334;6.534;2022-12-16T15:59:29;101.45;;;37.65;;
53801;SDS011;39709;53.334;6.534;2022-12-16T16:02:17;103.60;;;36.47;;
53801;SDS011;39709;53.334;6.534;2022-12-16T16:05:20;93.78;;;36.00;;
53801;SDS011;39709;53.334;6.534;2022-12-16T16:08:06;111.60;;;39.57;;
53801;SDS011;39709;53.334;6.534;2022-12-16T16:10:53;98.85;;;36.63;;
53801;SDS011;39709;53.334;6.534;2022-12-16T16:13:38;103.68;;;37.03;;
53801;SDS011;39709;53.334;6.534;2022-12-16T16:16:22;97.97;;;34.22;;
53801;SDS011;39709;53.334;6.534;2022-12-16T16:19:15;95.63;;;36.60;;
53801;SDS011;39709;53.334;6.534;2022-12-16T16:22:08;97.63;;;35.90;;
53801;SDS011;39709;53.334;6.534;2022-12-16T16:24:54;94.95;;;34.97;;
53801;SDS011;39709;53.334;6.534;2022-12-16T16:27:46;96.72;;;33.70;;
53801;SDS011;39709;53.334;6.534;2022-12-16T16:30:30;82.15;;;32.15;;
53801;SDS011;39709;53.334;6.534;2022-12-16T16:33:15;93.22;;;31.75;;
53801;SDS011;39709;53.334;6.534;2022-12-16T16:35:59;86.53;;;32.00;;
53801;SDS011;39709;53.334;6.534;2022-12-16T16:38:43;86.95;;;30.48;;
53801;SDS011;39709;53.334;6.534;2022-12-16T16:41:27;91.07;;;31.05;;
53801;SDS011;39709;53.334;6.534;2022-12-16T16:44:11;78.80;;;29.95;;
53801;SDS011;39709;53.334;6.534;2022-12-16T16:46:56;87.43;;;31.02;;
53801;SDS011;39709;53.334;6.534;2022-12-16T16:49:41;78.13;;;27.57;;
53801;SDS011;39709;53.334;6.534;2022-12-16T16:52:28;79.32;;;27.58;;
53801;SDS011;39709;53.334;6.534;2022-12-16T16:55:23;88.88;;;30.95;;
53801;SDS011;39709;53.334;6.534;2022-12-16T16:58:26;79.93;;;30.25;;
53801;SDS011;39709;53.334;6.534;2022-12-16T17:01:29;86.03;;;29.50;;
53801;SDS011;39709;53.334;6.534;2022-12-16T17:04:13;87.80;;;30.63;;
53801;SDS011;39709;53.334;6.534;2022-12-16T17:06:57;96.20;;;33.15;;
53801;SDS011;39709;53.334;6.534;2022-12-16T17:09:41;89.28;;;32.15;;
53801;SDS011;39709;53.334;6.534;2022-12-16T17:12:26;80.10;;;27.02;;
53801;SDS011;39709;53.334;6.534;2022-12-16T17:17:56;102.80;;;38.00;;
53801;SDS011;39709;53.334;6.534;2022-12-16T17:20:40;91.25;;;33.33;;
53801;SDS011;39709;53.334;6.534;2022-12-16T17:23:25;79.18;;;28.40;;
53801;SDS011;39709;53.334;6.534;2022-12-16T17:26:09;85.03;;;31.17;;
53801;SDS011;39709;53.334;6.534;2022-12-16T17:28:53;90.85;;;32.25;;
53801;SDS011;39709;53.334;6.534;2022-12-16T17:31:38;96.37;;;33.67;;
53801;SDS011;39709;53.334;6.534;2022-12-16T17:34:22;97.10;;;31.83;;
53801;SDS011;39709;53.334;6.534;2022-12-16T17:37:06;96.80;;;33.20;;
53801;SDS011;39709;53.334;6.534;2022-12-16T17:39:50;99.53;;;32.22;;
53801;SDS011;39709;53.334;6.534;2022-12-16T17:42:34;93.93;;;31.42;;
53801;SDS011;39709;53.334;6.534;2022-12-16T17:45:18;107.22;;;37.40;;
53801;SDS011;39709;53.334;6.534;2022-12-16T17:48:02;118.90;;;49.28;;
53801;SDS011;39709;53.334;6.534;2022-12-16T17:50:47;102.75;;;35.25;;